Meroney, Arkansas
Current Conditions -  °F | °C
As of 6:53 AM on Friday 28 Nov 2014 (Local Time) from KPBF Reporting Station
Clear Clear  
Wind Chill: 25°   Ceiling: Unl
Heat Index: 30°   Visibility: 8mi
Dew Point: 27°   Wind: 5mph
Humidity: 88%   Direction: 180°S
Pressure: 30.38"   Gusts: NA
Location:  34.0297°N, 91.5376°W
Report Text: KPBF 281253Z AUTO 18004KT 8SM CLR M01/M03 A3038 RMK AO2 SLP290 T10111028
Loading
Personal Weather Stations






























Interactive Weather Map New forecast layout! Learn more

10-Day Weather Forecast

Advertisements
Track Severe Weather on mobile